sensor_id;sensor_type;location;lat;lon;timestamp;pressure;altitude;pressure_sealevel;temperature;humidity
72336;BME280;65062;48.446;8.834;2023-03-26T00:00:20;97099.09;;;5.66;89.88
72336;BME280;65062;48.446;8.834;2023-03-26T00:03:20;97095.34;;;5.68;89.43
72336;BME280;65062;48.446;8.834;2023-03-26T00:06:23;97079.94;;;5.67;89.12
72336;BME280;65062;48.446;8.834;2023-03-26T00:09:24;97082.41;;;5.52;89.94
72336;BME280;65062;48.446;8.834;2023-03-26T00:12:24;97083.88;;;5.47;89.88
72336;BME280;65062;48.446;8.834;2023-03-26T00:15:25;97076.41;;;5.36;89.93
72336;BME280;65062;48.446;8.834;2023-03-26T00:18:26;97077.53;;;5.25;89.74
72336;BME280;65062;48.446;8.834;2023-03-26T00:21:34;97072.84;;;5.21;89.91
72336;BME280;65062;48.446;8.834;2023-03-26T00:24:34;97073.97;;;5.02;90.05
72336;BME280;65062;48.446;8.834;2023-03-26T00:27:36;97080.63;;;5.05;89.58
72336;BME280;65062;48.446;8.834;2023-03-26T00:30:37;97071.06;;;5.05;89.25
72336;BME280;65062;48.446;8.834;2023-03-26T00:33:41;97078.19;;;5.03;88.66
72336;BME280;65062;48.446;8.834;2023-03-26T00:36:41;97076.72;;;4.93;88.87
72336;BME280;65062;48.446;8.834;2023-03-26T00:39:42;97077.50;;;4.77;88.92
72336;BME280;65062;48.446;8.834;2023-03-26T00:42:43;97081.84;;;4.61;90.03
72336;BME280;65062;48.446;8.834;2023-03-26T00:45:48;97081.31;;;4.41;89.81
72336;BME280;65062;48.446;8.834;2023-03-26T00:48:49;97081.44;;;4.31;90.70
72336;BME280;65062;48.446;8.834;2023-03-26T00:51:49;97078.44;;;4.52;90.85
72336;BME280;65062;48.446;8.834;2023-03-26T00:54:50;97081.63;;;4.46;90.69
72336;BME280;65062;48.446;8.834;2023-03-26T00:57:51;97074.13;;;4.27;90.42
72336;BME280;65062;48.446;8.834;2023-03-26T01:00:52;97069.41;;;4.22;90.64
72336;BME280;65062;48.446;8.834;2023-03-26T01:03:57;97066.03;;;4.22;91.45
72336;BME280;65062;48.446;8.834;2023-03-26T01:07:17;97054.03;;;4.13;92.18
72336;BME280;65062;48.446;8.834;2023-03-26T01:10:21;97045.44;;;4.12;91.56
72336;BME280;65062;48.446;8.834;2023-03-26T01:13:23;97041.56;;;4.16;92.46
72336;BME280;65062;48.446;8.834;2023-03-26T01:16:37;97031.41;;;4.23;92.76
72336;BME280;65062;48.446;8.834;2023-03-26T01:22:50;97022.06;;;4.38;92.22
72336;BME280;65062;48.446;8.834;2023-03-26T01:26:01;97018.28;;;4.24;92.46
72336;BME280;65062;48.446;8.834;2023-03-26T01:29:11;97031.03;;;4.18;91.91
72336;BME280;65062;48.446;8.834;2023-03-26T01:32:25;97020.84;;;4.08;92.09
72336;BME280;65062;48.446;8.834;2023-03-26T01:35:45;97020.69;;;4.10;92.51
72336;BME280;65062;48.446;8.834;2023-03-26T01:42:10;96990.91;;;4.14;92.89
72336;BME280;65062;48.446;8.834;2023-03-26T01:45:16;96993.19;;;4.25;91.56
72336;BME280;65062;48.446;8.834;2023-03-26T01:48:28;96987.50;;;4.13;92.44
72336;BME280;65062;48.446;8.834;2023-03-26T01:51:30;96979.28;;;4.26;92.30
72336;BME280;65062;48.446;8.834;2023-03-26T01:54:31;96972.81;;;4.22;92.31
72336;BME280;65062;48.446;8.834;2023-03-26T01:57:40;96960.66;;;4.22;92.23
72336;BME280;65062;48.446;8.834;2023-03-26T02:00:54;96954.66;;;4.14;92.27
72336;BME280;65062;48.446;8.834;2023-03-26T02:04:09;96950.13;;;4.16;92.06
72336;BME280;65062;48.446;8.834;2023-03-26T02:07:21;96945.44;;;4.19;92.07
72336;BME280;65062;48.446;8.834;2023-03-26T02:10:29;96943.66;;;4.20;91.62
72336;BME280;65062;48.446;8.834;2023-03-26T02:13:30;96933.44;;;4.10;91.96
72336;BME280;65062;48.446;8.834;2023-03-26T02:16:31;96929.56;;;4.14;92.15
72336;BME280;65062;48.446;8.834;2023-03-26T02:19:31;96928.94;;;4.20;92.17
72336;BME280;65062;48.446;8.834;2023-03-26T02:22:32;96913.72;;;4.33;91.52
72336;BME280;65062;48.446;8.834;2023-03-26T02:25:32;96902.88;;;4.30;91.91
72336;BME280;65062;48.446;8.834;2023-03-26T02:28:34;96909.00;;;4.21;90.84
72336;BME280;65062;48.446;8.834;2023-03-26T02:31:34;96899.31;;;4.23;90.71
72336;BME280;65062;48.446;8.834;2023-03-26T02:34:35;96880.06;;;4.17;91.34
72336;BME280;65062;48.446;8.834;2023-03-26T02:37:36;96873.25;;;4.16;92.07
72336;BME280;65062;48.446;8.834;2023-03-26T02:40:37;96861.09;;;4.09;91.68
72336;BME280;65062;48.446;8.834;2023-03-26T02:43:37;96867.75;;;4.11;92.10
72336;BME280;65062;48.446;8.834;2023-03-26T02:46:38;96850.91;;;4.15;91.36
72336;BME280;65062;48.446;8.834;2023-03-26T02:49:38;96844.44;;;4.11;92.44
72336;BME280;65062;48.446;8.834;2023-03-26T02:52:38;96847.19;;;4.18;91.24
72336;BME280;65062;48.446;8.834;2023-03-26T02:55:39;96844.09;;;4.06;90.26
72336;BME280;65062;48.446;8.834;2023-03-26T02:58:39;96838.94;;;3.98;91.35
72336;BME280;65062;48.446;8.834;2023-03-26T03:01:40;96838.94;;;4.06;92.01
72336;BME280;65062;48.446;8.834;2023-03-26T03:04:42;96827.75;;;4.06;92.33
72336;BME280;65062;48.446;8.834;2023-03-26T03:07:44;96819.19;;;4.05;92.02
72336;BME280;65062;48.446;8.834;2023-03-26T03:10:59;96815.47;;;4.08;91.06
72336;BME280;65062;48.446;8.834;2023-03-26T03:14:00;96818.38;;;3.97;91.65
72336;BME280;65062;48.446;8.834;2023-03-26T03:17:01;96812.06;;;4.07;91.28
72336;BME280;65062;48.446;8.834;2023-03-26T03:20:01;96802.69;;;4.14;91.44
72336;BME280;65062;48.446;8.834;2023-03-26T03:23:01;96801.22;;;4.12;91.86
72336;BME280;65062;48.446;8.834;2023-03-26T03:26:02;96801.22;;;4.12;92.45
72336;BME280;65062;48.446;8.834;2023-03-26T03:29:02;96809.31;;;4.09;91.32
72336;BME280;65062;48.446;8.834;2023-03-26T03:32:03;96809.81;;;4.20;91.16
72336;BME280;65062;48.446;8.834;2023-03-26T03:35:04;96797.50;;;4.22;91.10
72336;BME280;65062;48.446;8.834;2023-03-26T03:38:05;96798.78;;;4.26;91.50
72336;BME280;65062;48.446;8.834;2023-03-26T03:41:07;96788.94;;;4.22;91.26
72336;BME280;65062;48.446;8.834;2023-03-26T03:44:08;96783.72;;;4.30;91.79
72336;BME280;65062;48.446;8.834;2023-03-26T03:47:08;96774.84;;;4.24;90.83
72336;BME280;65062;48.446;8.834;2023-03-26T03:50:12;96782.91;;;4.29;91.41
72336;BME280;65062;48.446;8.834;2023-03-26T03:53:13;96764.66;;;4.23;90.78
72336;BME280;65062;48.446;8.834;2023-03-26T03:56:15;96763.19;;;4.37;91.39
72336;BME280;65062;48.446;8.834;2023-03-26T03:59:18;96757.69;;;4.31;90.95
72336;BME280;65062;48.446;8.834;2023-03-26T04:02:18;96755.44;;;4.20;90.11
72336;BME280;65062;48.446;8.834;2023-03-26T04:05:33;96750.09;;;4.14;90.69
72336;BME280;65062;48.446;8.834;2023-03-26T04:08:33;96740.69;;;4.21;90.48
72336;BME280;65062;48.446;8.834;2023-03-26T04:11:35;96741.31;;;4.31;91.45
72336;BME280;65062;48.446;8.834;2023-03-26T04:14:35;96735.34;;;4.22;90.73
72336;BME280;65062;48.446;8.834;2023-03-26T04:17:36;96743.59;;;4.18;90.22
72336;BME280;65062;48.446;8.834;2023-03-26T04:20:43;96741.16;;;4.32;90.95
72336;BME280;65062;48.446;8.834;2023-03-26T04:23:46;96743.13;;;4.30;91.48
72336;BME280;65062;48.446;8.834;2023-03-26T04:26:47;96730.63;;;4.34;91.40
72336;BME280;65062;48.446;8.834;2023-03-26T04:29:49;96722.03;;;4.42;90.20
72336;BME280;65062;48.446;8.834;2023-03-26T04:32:49;96716.06;;;4.41;89.28
72336;BME280;65062;48.446;8.834;2023-03-26T04:35:50;96703.28;;;4.31;90.19
72336;BME280;65062;48.446;8.834;2023-03-26T04:38:51;96702.63;;;4.29;90.71
72336;BME280;65062;48.446;8.834;2023-03-26T04:41:52;96688.72;;;4.30;91.22
72336;BME280;65062;48.446;8.834;2023-03-26T04:44:53;96680.28;;;4.37;90.82
72336;BME280;65062;48.446;8.834;2023-03-26T04:47:53;96695.16;;;4.43;90.97
72336;BME280;65062;48.446;8.834;2023-03-26T04:50:55;96696.78;;;4.35;90.10
72336;BME280;65062;48.446;8.834;2023-03-26T04:53:59;96692.88;;;4.48;90.73
72336;BME280;65062;48.446;8.834;2023-03-26T04:57:02;96677.97;;;4.50;89.96
72336;BME280;65062;48.446;8.834;2023-03-26T05:00:05;96671.00;;;4.50;90.92
72336;BME280;65062;48.446;8.834;2023-03-26T05:03:14;96661.44;;;4.51;90.14
72336;BME280;65062;48.446;8.834;2023-03-26T05:06:15;96663.22;;;4.50;90.41
72336;BME280;65062;48.446;8.834;2023-03-26T05:09:17;96647.69;;;4.50;90.52
72336;BME280;65062;48.446;8.834;2023-03-26T05:12:18;96641.88;;;4.48;90.82
72336;BME280;65062;48.446;8.834;2023-03-26T05:15:18;96631.34;;;4.50;90.68
72336;BME280;65062;48.446;8.834;2023-03-26T05:18:19;96624.50;;;4.57;90.64
72336;BME280;65062;48.446;8.834;2023-03-26T05:21:19;96632.09;;;4.66;90.07
72336;BME280;65062;48.446;8.834;2023-03-26T05:24:20;96620.31;;;4.56;90.09
72336;BME280;65062;48.446;8.834;2023-03-26T05:27:20;96614.28;;;4.63;90.78
72336;BME280;65062;48.446;8.834;2023-03-26T05:30:21;96602.63;;;4.59;90.25
72336;BME280;65062;48.446;8.834;2023-03-26T05:33:21;96590.34;;;4.53;90.59
72336;BME280;65062;48.446;8.834;2023-03-26T05:36:24;96593.91;;;4.60;90.36
72336;BME280;65062;48.446;8.834;2023-03-26T05:39:25;96591.63;;;4.57;90.92
72336;BME280;65062;48.446;8.834;2023-03-26T05:42:26;96579.03;;;4.54;90.71
72336;BME280;65062;48.446;8.834;2023-03-26T05:45:27;96578.38;;;4.52;90.26
72336;BME280;65062;48.446;8.834;2023-03-26T05:48:27;96584.97;;;4.63;91.38
72336;BME280;65062;48.446;8.834;2023-03-26T05:51:28;96578.63;;;4.65;91.52
72336;BME280;65062;48.446;8.834;2023-03-26T05:54:28;96571.78;;;4.72;91.21
72336;BME280;65062;48.446;8.834;2023-03-26T05:57:30;96557.34;;;4.78;90.54
72336;BME280;65062;48.446;8.834;2023-03-26T06:00:30;96547.25;;;4.83;91.10
72336;BME280;65062;48.446;8.834;2023-03-26T06:03:31;96558.25;;;4.85;90.12
72336;BME280;65062;48.446;8.834;2023-03-26T06:06:32;96561.84;;;4.84;90.18
72336;BME280;65062;48.446;8.834;2023-03-26T06:09:32;96554.97;;;4.91;89.78
72336;BME280;65062;48.446;8.834;2023-03-26T06:12:33;96545.06;;;4.94;89.66
72336;BME280;65062;48.446;8.834;2023-03-26T06:15:33;96536.22;;;5.03;89.61
72336;BME280;65062;48.446;8.834;2023-03-26T06:18:34;96530.69;;;5.06;89.43
72336;BME280;65062;48.446;8.834;2023-03-26T06:21:35;96520.09;;;5.16;89.76
72336;BME280;65062;48.446;8.834;2023-03-26T06:24:35;96513.03;;;5.24;89.81
72336;BME280;65062;48.446;8.834;2023-03-26T06:27:36;96509.28;;;5.27;89.02
72336;BME280;65062;48.446;8.834;2023-03-26T06:30:37;96508.84;;;5.23;88.48
72336;BME280;65062;48.446;8.834;2023-03-26T06:33:37;96500.97;;;5.31;88.81
72336;BME280;65062;48.446;8.834;2023-03-26T06:36:38;96503.91;;;5.28;88.91
72336;BME280;65062;48.446;8.834;2023-03-26T06:39:38;96486.31;;;5.38;89.45
72336;BME280;65062;48.446;8.834;2023-03-26T06:42:38;96472.09;;;5.34;89.34
72336;BME280;65062;48.446;8.834;2023-03-26T06:45:39;96475.22;;;5.44;88.98
72336;BME280;65062;48.446;8.834;2023-03-26T06:48:40;96459.59;;;5.38;89.17
72336;BME280;65062;48.446;8.834;2023-03-26T06:51:41;96456.00;;;5.39;88.95
72336;BME280;65062;48.446;8.834;2023-03-26T06:54:42;96454.81;;;5.41;89.21
72336;BME280;65062;48.446;8.834;2023-03-26T06:57:47;96450.81;;;5.53;89.05
72336;BME280;65062;48.446;8.834;2023-03-26T07:00:52;96452.84;;;5.58;88.67
72336;BME280;65062;48.446;8.834;2023-03-26T07:03:52;96444.53;;;5.62;89.10
72336;BME280;65062;48.446;8.834;2023-03-26T07:06:53;96424.41;;;5.64;88.43
72336;BME280;65062;48.446;8.834;2023-03-26T07:09:54;96415.00;;;5.63;88.47
72336;BME280;65062;48.446;8.834;2023-03-26T07:12:54;96410.25;;;5.81;88.08
72336;BME280;65062;48.446;8.834;2023-03-26T07:15:55;96397.44;;;5.80;88.25
72336;BME280;65062;48.446;8.834;2023-03-26T07:18:55;96393.97;;;5.87;88.03
72336;BME280;65062;48.446;8.834;2023-03-26T07:21:56;96398.78;;;5.90;87.48
72336;BME280;65062;48.446;8.834;2023-03-26T07:24:56;96391.53;;;5.86;88.40
72336;BME280;65062;48.446;8.834;2023-03-26T07:28:22;96389.81;;;5.93;88.29
72336;BME280;65062;48.446;8.834;2023-03-26T07:31:30;96375.06;;;5.93;88.78
72336;BME280;65062;48.446;8.834;2023-03-26T07:37:55;96372.91;;;5.97;88.21
72336;BME280;65062;48.446;8.834;2023-03-26T07:50:21;96360.84;;;6.31;88.52
72336;BME280;65062;48.446;8.834;2023-03-26T07:53:22;96359.28;;;6.37;87.58
72336;BME280;65062;48.446;8.834;2023-03-26T07:56:57;96357.84;;;6.56;87.27
72336;BME280;65062;48.446;8.834;2023-03-26T08:06:38;96375.56;;;6.46;88.47
72336;BME280;65062;48.446;8.834;2023-03-26T08:16:13;96343.94;;;6.42;89.22
72336;BME280;65062;48.446;8.834;2023-03-26T08:19:37;96348.97;;;6.43;89.86
72336;BME280;65062;48.446;8.834;2023-03-26T08:22:41;96335.59;;;6.47;89.74
72336;BME280;65062;48.446;8.834;2023-03-26T08:32:36;96339.00;;;6.75;89.71
72336;BME280;65062;48.446;8.834;2023-03-26T08:35:36;96351.06;;;6.82;89.84
72336;BME280;65062;48.446;8.834;2023-03-26T08:38:41;96344.94;;;6.96;90.02
72336;BME280;65062;48.446;8.834;2023-03-26T08:49:02;96354.47;;;7.17;88.69
72336;BME280;65062;48.446;8.834;2023-03-26T08:52:47;96366.34;;;7.26;89.48
72336;BME280;65062;48.446;8.834;2023-03-26T08:56:17;96359.47;;;7.59;88.89
72336;BME280;65062;48.446;8.834;2023-03-26T09:17:16;96355.75;;;10.07;82.10
72336;BME280;65062;48.446;8.834;2023-03-26T09:23:39;96347.63;;;10.78;82.80
72336;BME280;65062;48.446;8.834;2023-03-26T09:30:16;96344.09;;;10.66;73.89
72336;BME280;65062;48.446;8.834;2023-03-26T09:40:17;96347.84;;;9.76;77.51
72336;BME280;65062;48.446;8.834;2023-03-26T09:50:11;96351.00;;;9.34;75.91
72336;BME280;65062;48.446;8.834;2023-03-26T09:53:44;96356.25;;;9.21;77.79
72336;BME280;65062;48.446;8.834;2023-03-26T10:00:33;96376.19;;;8.44;79.67
72336;BME280;65062;48.446;8.834;2023-03-26T10:07:29;96376.34;;;8.23;83.05
72336;BME280;65062;48.446;8.834;2023-03-26T10:20:32;96348.06;;;9.75;82.64
72336;BME280;65062;48.446;8.834;2023-03-26T10:27:03;96337.41;;;10.94;77.71
72336;BME280;65062;48.446;8.834;2023-03-26T10:30:44;96353.44;;;11.04;72.47
72336;BME280;65062;48.446;8.834;2023-03-26T10:37:12;96332.59;;;10.67;72.96
72336;BME280;65062;48.446;8.834;2023-03-26T10:40:22;96332.22;;;10.38;75.51
72336;BME280;65062;48.446;8.834;2023-03-26T10:47:05;96355.34;;;10.04;69.43
72336;BME280;65062;48.446;8.834;2023-03-26T10:50:53;96365.41;;;10.00;70.80
72336;BME280;65062;48.446;8.834;2023-03-26T10:54:09;96367.00;;;10.14;70.57
72336;BME280;65062;48.446;8.834;2023-03-26T10:57:28;96377.78;;;10.24;72.09
72336;BME280;65062;48.446;8.834;2023-03-26T11:00:36;96377.97;;;9.79;71.57
72336;BME280;65062;48.446;8.834;2023-03-26T11:03:55;96393.91;;;9.64;71.44
72336;BME280;65062;48.446;8.834;2023-03-26T11:14:02;96396.81;;;10.94;67.64
72336;BME280;65062;48.446;8.834;2023-03-26T11:20:47;96372.75;;;11.28;67.36
72336;BME280;65062;48.446;8.834;2023-03-26T11:24:17;96361.38;;;11.16;66.41
72336;BME280;65062;48.446;8.834;2023-03-26T11:27:44;96360.28;;;11.41;68.83
72336;BME280;65062;48.446;8.834;2023-03-26T11:30:53;96351.66;;;11.77;69.03
72336;BME280;65062;48.446;8.834;2023-03-26T11:34:03;96365.91;;;11.99;63.80
72336;BME280;65062;48.446;8.834;2023-03-26T11:37:06;96348.84;;;12.37;68.81
72336;BME280;65062;48.446;8.834;2023-03-26T11:40:20;96328.22;;;13.56;62.00
72336;BME280;65062;48.446;8.834;2023-03-26T11:43:28;96354.25;;;14.82;55.35
72336;BME280;65062;48.446;8.834;2023-03-26T11:46:30;96351.84;;;15.68;58.25
72336;BME280;65062;48.446;8.834;2023-03-26T11:49:32;96356.50;;;15.39;52.33
72336;BME280;65062;48.446;8.834;2023-03-26T11:52:32;96342.09;;;16.96;49.59
72336;BME280;65062;48.446;8.834;2023-03-26T11:55:33;96336.44;;;18.22;43.36
72336;BME280;65062;48.446;8.834;2023-03-26T11:58:42;96338.03;;;18.18;44.52
72336;BME280;65062;48.446;8.834;2023-03-26T12:01:55;96328.72;;;19.86;44.14
72336;BME280;65062;48.446;8.834;2023-03-26T12:08:45;96324.66;;;22.00;32.77
72336;BME280;65062;48.446;8.834;2023-03-26T12:11:46;96327.53;;;21.00;35.49
72336;BME280;65062;48.446;8.834;2023-03-26T12:14:49;96322.91;;;21.39;34.30
72336;BME280;65062;48.446;8.834;2023-03-26T12:17:52;96314.97;;;23.75;27.48
72336;BME280;65062;48.446;8.834;2023-03-26T12:21:07;96316.47;;;23.81;28.63
72336;BME280;65062;48.446;8.834;2023-03-26T12:24:28;96309.47;;;22.01;29.40
72336;BME280;65062;48.446;8.834;2023-03-26T12:27:28;96316.44;;;21.97;30.91
72336;BME280;65062;48.446;8.834;2023-03-26T12:30:33;96281.31;;;23.87;30.10
72336;BME280;65062;48.446;8.834;2023-03-26T12:33:34;96285.97;;;22.77;30.80
72336;BME280;65062;48.446;8.834;2023-03-26T12:36:35;96275.06;;;22.92;30.70
72336;BME280;65062;48.446;8.834;2023-03-26T12:39:37;96275.75;;;24.60;27.91
72336;BME280;65062;48.446;8.834;2023-03-26T12:42:39;96276.72;;;25.69;26.13
72336;BME280;65062;48.446;8.834;2023-03-26T12:45:42;96267.97;;;23.47;26.38
72336;BME280;65062;48.446;8.834;2023-03-26T12:48:42;96266.00;;;21.06;29.20
72336;BME280;65062;48.446;8.834;2023-03-26T12:51:47;96262.28;;;18.22;35.57
72336;BME280;65062;48.446;8.834;2023-03-26T13:01:49;96228.00;;;25.67;26.04
72336;BME280;65062;48.446;8.834;2023-03-26T13:11:36;96221.41;;;22.43;27.25
72336;BME280;65062;48.446;8.834;2023-03-26T13:15:13;96237.09;;;24.30;28.39
72336;BME280;65062;48.446;8.834;2023-03-26T13:28:39;96211.59;;;24.91;26.68
72336;BME280;65062;48.446;8.834;2023-03-26T13:32:28;96224.66;;;21.19;30.36
72336;BME280;65062;48.446;8.834;2023-03-26T13:35:45;96218.28;;;17.20;36.23
72336;BME280;65062;48.446;8.834;2023-03-26T13:45:47;96231.28;;;14.32;45.48
72336;BME280;65062;48.446;8.834;2023-03-26T13:49:02;96224.34;;;14.59;43.61
72336;BME280;65062;48.446;8.834;2023-03-26T13:52:25;96208.72;;;15.77;41.73
72336;BME280;65062;48.446;8.834;2023-03-26T13:55:32;96192.59;;;17.92;36.78
72336;BME280;65062;48.446;8.834;2023-03-26T13:58:43;96202.84;;;19.34;33.58
72336;BME280;65062;48.446;8.834;2023-03-26T14:01:54;96216.97;;;17.99;33.75
72336;BME280;65062;48.446;8.834;2023-03-26T14:05:00;96204.03;;;17.26;35.38
72336;BME280;65062;48.446;8.834;2023-03-26T14:08:20;96239.34;;;17.05;34.43
72336;BME280;65062;48.446;8.834;2023-03-26T14:12:20;96212.94;;;19.27;33.06
72336;BME280;65062;48.446;8.834;2023-03-26T14:15:00;96237.88;;;19.11;29.58
72336;BME280;65062;48.446;8.834;2023-03-26T14:41:23;96249.16;;;12.84;46.37
72336;BME280;65062;48.446;8.834;2023-03-26T14:47:36;96265.75;;;11.43;51.17
72336;BME280;65062;48.446;8.834;2023-03-26T14:53:58;96260.84;;;10.81;55.03
72336;BME280;65062;48.446;8.834;2023-03-26T14:57:26;96254.44;;;10.95;54.90
72336;BME280;65062;48.446;8.834;2023-03-26T15:41:38;96293.91;;;7.29;84.17
72336;BME280;65062;48.446;8.834;2023-03-26T15:48:05;96316.47;;;7.76;78.92
72336;BME280;65062;48.446;8.834;2023-03-26T15:51:23;96319.34;;;7.94;76.25
72336;BME280;65062;48.446;8.834;2023-03-26T16:10:53;96326.47;;;10.54;64.06
72336;BME280;65062;48.446;8.834;2023-03-26T16:14:20;96330.59;;;10.13;66.28
72336;BME280;65062;48.446;8.834;2023-03-26T16:17:22;96325.88;;;9.90;66.85
72336;BME280;65062;48.446;8.834;2023-03-26T16:20:46;96344.13;;;9.53;69.73
72336;BME280;65062;48.446;8.834;2023-03-26T16:23:56;96342.75;;;9.37;67.73
72336;BME280;65062;48.446;8.834;2023-03-26T16:30:29;96347.38;;;9.42;68.07
72336;BME280;65062;48.446;8.834;2023-03-26T16:33:43;96354.41;;;9.85;67.80
72336;BME280;65062;48.446;8.834;2023-03-26T16:36:46;96354.13;;;9.69;66.37
72336;BME280;65062;48.446;8.834;2023-03-26T16:39:50;96343.19;;;9.28;69.09
72336;BME280;65062;48.446;8.834;2023-03-26T16:46:34;96355.13;;;8.85;72.26
72336;BME280;65062;48.446;8.834;2023-03-26T16:53:08;96368.91;;;8.26;72.22
72336;BME280;65062;48.446;8.834;2023-03-26T16:56:24;96360.66;;;8.10;73.72
72336;BME280;65062;48.446;8.834;2023-03-26T17:13:06;96363.66;;;7.47;78.68
72336;BME280;65062;48.446;8.834;2023-03-26T17:16:26;96363.41;;;7.42;77.96
72336;BME280;65062;48.446;8.834;2023-03-26T17:26:29;96366.22;;;7.06;80.29
72336;BME280;65062;48.446;8.834;2023-03-26T17:33:21;96362.91;;;6.64;81.06
72336;BME280;65062;48.446;8.834;2023-03-26T17:36:35;96369.41;;;6.53;81.84
72336;BME280;65062;48.446;8.834;2023-03-26T17:42:59;96357.75;;;6.43;82.43
72336;BME280;65062;48.446;8.834;2023-03-26T17:46:03;96368.16;;;6.43;81.58
72336;BME280;65062;48.446;8.834;2023-03-26T17:52:54;96374.63;;;6.11;83.92
72336;BME280;65062;48.446;8.834;2023-03-26T17:56:18;96384.44;;;5.94;84.87
72336;BME280;65062;48.446;8.834;2023-03-26T17:59:24;96380.72;;;5.82;86.01
72336;BME280;65062;48.446;8.834;2023-03-26T18:02:37;96389.66;;;5.80;86.89
72336;BME280;65062;48.446;8.834;2023-03-26T18:05:41;96390.31;;;5.82;86.37
72336;BME280;65062;48.446;8.834;2023-03-26T18:12:31;96372.56;;;5.85;84.77
72336;BME280;65062;48.446;8.834;2023-03-26T18:22:01;96369.19;;;5.85;82.66
72336;BME280;65062;48.446;8.834;2023-03-26T18:25:03;96373.47;;;5.78;83.47
72336;BME280;65062;48.446;8.834;2023-03-26T18:28:04;96380.34;;;5.85;80.87
72336;BME280;65062;48.446;8.834;2023-03-26T18:31:15;96378.09;;;5.82;80.67
72336;BME280;65062;48.446;8.834;2023-03-26T18:34:18;96373.91;;;5.67;82.00
72336;BME280;65062;48.446;8.834;2023-03-26T18:37:29;96380.75;;;5.53;82.20
72336;BME280;65062;48.446;8.834;2023-03-26T18:40:39;96369.94;;;5.50;83.91
72336;BME280;65062;48.446;8.834;2023-03-26T18:43:40;96362.41;;;5.55;82.89
72336;BME280;65062;48.446;8.834;2023-03-26T18:46:40;96372.13;;;5.67;81.22
72336;BME280;65062;48.446;8.834;2023-03-26T18:49:46;96371.69;;;5.64;81.71
72336;BME280;65062;48.446;8.834;2023-03-26T18:52:48;96372.94;;;5.68;81.05
72336;BME280;65062;48.446;8.834;2023-03-26T18:55:50;96373.56;;;5.70;81.06
72336;BME280;65062;48.446;8.834;2023-03-26T18:58:51;96367.38;;;5.71;81.27
72336;BME280;65062;48.446;8.834;2023-03-26T19:01:53;96369.28;;;5.62;81.33
72336;BME280;65062;48.446;8.834;2023-03-26T19:04:56;96363.28;;;5.62;80.92
72336;BME280;65062;48.446;8.834;2023-03-26T19:07:57;96370.88;;;5.63;81.48
72336;BME280;65062;48.446;8.834;2023-03-26T19:11:02;96371.50;;;5.65;80.87
72336;BME280;65062;48.446;8.834;2023-03-26T19:14:14;96370.16;;;5.69;80.94
72336;BME280;65062;48.446;8.834;2023-03-26T19:17:15;96367.13;;;5.66;81.06
72336;BME280;65062;48.446;8.834;2023-03-26T19:20:22;96366.13;;;5.67;81.20
72336;BME280;65062;48.446;8.834;2023-03-26T19:23:36;96372.59;;;5.56;81.50
72336;BME280;65062;48.446;8.834;2023-03-26T19:26:37;96380.66;;;5.61;81.56
72336;BME280;65062;48.446;8.834;2023-03-26T19:29:40;96383.84;;;5.63;81.42
72336;BME280;65062;48.446;8.834;2023-03-26T19:32:51;96382.66;;;5.80;83.53
72336;BME280;65062;48.446;8.834;2023-03-26T19:36:01;96378.84;;;5.76;83.26
72336;BME280;65062;48.446;8.834;2023-03-26T19:39:11;96380.06;;;5.80;83.96
72336;BME280;65062;48.446;8.834;2023-03-26T19:42:23;96369.53;;;5.82;83.35
72336;BME280;65062;48.446;8.834;2023-03-26T19:45:25;96376.25;;;5.76;82.39
72336;BME280;65062;48.446;8.834;2023-03-26T19:48:32;96376.84;;;5.78;81.87
72336;BME280;65062;48.446;8.834;2023-03-26T19:51:35;96377.94;;;5.84;82.26
72336;BME280;65062;48.446;8.834;2023-03-26T19:54:55;96369.78;;;5.72;82.74
72336;BME280;65062;48.446;8.834;2023-03-26T19:57:58;96372.41;;;5.58;84.22
72336;BME280;65062;48.446;8.834;2023-03-26T20:00:58;96367.69;;;5.47;85.42
72336;BME280;65062;48.446;8.834;2023-03-26T20:04:02;96364.78;;;5.35;85.38
72336;BME280;65062;48.446;8.834;2023-03-26T20:07:12;96359.38;;;5.08;86.01
72336;BME280;65062;48.446;8.834;2023-03-26T20:10:16;96357.31;;;5.03;86.51
72336;BME280;65062;48.446;8.834;2023-03-26T20:13:16;96359.03;;;4.96;86.33
72336;BME280;65062;48.446;8.834;2023-03-26T20:16:25;96348.66;;;4.82;86.18
72336;BME280;65062;48.446;8.834;2023-03-26T20:19:26;96344.06;;;4.55;87.03
72336;BME280;65062;48.446;8.834;2023-03-26T20:22:26;96344.50;;;4.58;86.76
72336;BME280;65062;48.446;8.834;2023-03-26T20:25:29;96344.81;;;4.63;86.85
72336;BME280;65062;48.446;8.834;2023-03-26T20:28:31;96345.19;;;4.75;86.44
72336;BME280;65062;48.446;8.834;2023-03-26T20:31:32;96342.13;;;4.86;85.42
72336;BME280;65062;48.446;8.834;2023-03-26T20:34:32;96343.84;;;4.93;84.91
72336;BME280;65062;48.446;8.834;2023-03-26T20:37:33;96354.91;;;5.02;83.90
72336;BME280;65062;48.446;8.834;2023-03-26T20:40:33;96350.38;;;5.04;84.01
72336;BME280;65062;48.446;8.834;2023-03-26T20:43:34;96355.09;;;5.00;83.42
72336;BME280;65062;48.446;8.834;2023-03-26T20:46:35;96359.84;;;5.11;82.93
72336;BME280;65062;48.446;8.834;2023-03-26T20:49:36;96352.25;;;5.10;83.64
72336;BME280;65062;48.446;8.834;2023-03-26T20:52:36;96353.50;;;4.99;84.47
72336;BME280;65062;48.446;8.834;2023-03-26T20:55:36;96341.34;;;5.00;83.68
72336;BME280;65062;48.446;8.834;2023-03-26T20:58:37;96336.88;;;4.94;83.66
72336;BME280;65062;48.446;8.834;2023-03-26T21:01:39;96342.94;;;4.72;84.81
72336;BME280;65062;48.446;8.834;2023-03-26T21:04:40;96337.56;;;4.59;85.41
72336;BME280;65062;48.446;8.834;2023-03-26T21:07:41;96328.84;;;4.37;85.51
72336;BME280;65062;48.446;8.834;2023-03-26T21:10:42;96331.00;;;4.48;86.81
72336;BME280;65062;48.446;8.834;2023-03-26T21:13:47;96335.38;;;4.48;86.87
72336;BME280;65062;48.446;8.834;2023-03-26T21:16:51;96346.56;;;4.48;85.63
72336;BME280;65062;48.446;8.834;2023-03-26T21:19:51;96352.06;;;4.82;85.90
72336;BME280;65062;48.446;8.834;2023-03-26T21:23:26;96338.00;;;4.77;84.14
72336;BME280;65062;48.446;8.834;2023-03-26T21:26:36;96346.34;;;4.87;84.77
72336;BME280;65062;48.446;8.834;2023-03-26T21:29:42;96348.03;;;4.94;84.77
72336;BME280;65062;48.446;8.834;2023-03-26T21:32:44;96334.53;;;4.99;83.61
72336;BME280;65062;48.446;8.834;2023-03-26T21:35:45;96331.03;;;5.06;84.18